sensor_id;sensor_type;location;lat;lon;timestamp;P1;durP1;ratioP1;P2;durP2;ratioP2
23416;SDS011;11881;42.432;25.632;2022-08-19T00:01:53;23.57;;;8.13;;
23416;SDS011;11881;42.432;25.632;2022-08-19T00:04:20;14.13;;;6.73;;
23416;SDS011;11881;42.432;25.632;2022-08-19T00:06:47;9.53;;;7.00;;
23416;SDS011;11881;42.432;25.632;2022-08-19T00:09:14;10.03;;;7.30;;
23416;SDS011;11881;42.432;25.632;2022-08-19T00:11:42;8.20;;;6.83;;
23416;SDS011;11881;42.432;25.632;2022-08-19T00:14:09;10.77;;;6.80;;
23416;SDS011;11881;42.432;25.632;2022-08-19T00:16:37;11.47;;;7.13;;
23416;SDS011;11881;42.432;25.632;2022-08-19T00:19:04;10.57;;;7.00;;
23416;SDS011;11881;42.432;25.632;2022-08-19T00:21:29;20.60;;;7.03;;
23416;SDS011;11881;42.432;25.632;2022-08-19T00:23:55;11.23;;;7.43;;
23416;SDS011;11881;42.432;25.632;2022-08-19T00:26:25;11.10;;;6.83;;
23416;SDS011;11881;42.432;25.632;2022-08-19T00:28:52;9.87;;;6.67;;
23416;SDS011;11881;42.432;25.632;2022-08-19T00:31:17;11.03;;;7.37;;
23416;SDS011;11881;42.432;25.632;2022-08-19T00:33:43;12.30;;;7.40;;
23416;SDS011;11881;42.432;25.632;2022-08-19T00:36:08;11.13;;;7.37;;
23416;SDS011;11881;42.432;25.632;2022-08-19T00:38:35;12.27;;;6.97;;
23416;SDS011;11881;42.432;25.632;2022-08-19T00:41:05;10.73;;;6.67;;
23416;SDS011;11881;42.432;25.632;2022-08-19T00:43:31;8.03;;;6.90;;
23416;SDS011;11881;42.432;25.632;2022-08-19T00:45:56;8.27;;;6.83;;
23416;SDS011;11881;42.432;25.632;2022-08-19T00:48:22;11.37;;;7.17;;
23416;SDS011;11881;42.432;25.632;2022-08-19T00:50:49;11.87;;;7.53;;
23416;SDS011;11881;42.432;25.632;2022-08-19T00:53:18;8.47;;;7.30;;
23416;SDS011;11881;42.432;25.632;2022-08-19T00:55:47;7.90;;;7.10;;
23416;SDS011;11881;42.432;25.632;2022-08-19T00:58:16;7.53;;;6.83;;
23416;SDS011;11881;42.432;25.632;2022-08-19T01:00:44;9.77;;;6.60;;
23416;SDS011;11881;42.432;25.632;2022-08-19T01:03:15;11.17;;;7.20;;
23416;SDS011;11881;42.432;25.632;2022-08-19T01:05:44;10.77;;;7.23;;
23416;SDS011;11881;42.432;25.632;2022-08-19T01:08:11;8.87;;;7.17;;
23416;SDS011;11881;42.432;25.632;2022-08-19T01:10:40;11.33;;;7.47;;
23416;SDS011;11881;42.432;25.632;2022-08-19T01:13:08;10.23;;;7.10;;
23416;SDS011;11881;42.432;25.632;2022-08-19T01:15:40;9.40;;;7.37;;
23416;SDS011;11881;42.432;25.632;2022-08-19T01:18:10;10.90;;;7.13;;
23416;SDS011;11881;42.432;25.632;2022-08-19T01:20:37;11.83;;;8.03;;
23416;SDS011;11881;42.432;25.632;2022-08-19T01:23:03;11.47;;;7.30;;
23416;SDS011;11881;42.432;25.632;2022-08-19T01:25:31;9.87;;;7.23;;
23416;SDS011;11881;42.432;25.632;2022-08-19T01:28:12;9.77;;;7.00;;
23416;SDS011;11881;42.432;25.632;2022-08-19T01:30:42;9.00;;;7.07;;
23416;SDS011;11881;42.432;25.632;2022-08-19T01:33:09;11.80;;;7.17;;
23416;SDS011;11881;42.432;25.632;2022-08-19T01:35:34;8.40;;;7.13;;
23416;SDS011;11881;42.432;25.632;2022-08-19T01:38:02;9.63;;;7.33;;
23416;SDS011;11881;42.432;25.632;2022-08-19T01:40:33;15.60;;;7.63;;
23416;SDS011;11881;42.432;25.632;2022-08-19T01:43:00;10.73;;;7.33;;
23416;SDS011;11881;42.432;25.632;2022-08-19T01:45:28;8.30;;;7.37;;
23416;SDS011;11881;42.432;25.632;2022-08-19T01:47:56;11.90;;;7.20;;
23416;SDS011;11881;42.432;25.632;2022-08-19T01:50:23;10.47;;;7.53;;
23416;SDS011;11881;42.432;25.632;2022-08-19T01:52:49;10.77;;;7.47;;
23416;SDS011;11881;42.432;25.632;2022-08-19T01:55:17;11.10;;;7.03;;
23416;SDS011;11881;42.432;25.632;2022-08-19T01:57:46;11.33;;;7.47;;
23416;SDS011;11881;42.432;25.632;2022-08-19T02:00:16;14.90;;;7.83;;
23416;SDS011;11881;42.432;25.632;2022-08-19T02:02:43;10.83;;;7.93;;
23416;SDS011;11881;42.432;25.632;2022-08-19T02:05:09;9.70;;;7.63;;
23416;SDS011;11881;42.432;25.632;2022-08-19T02:07:35;11.07;;;7.23;;
23416;SDS011;11881;42.432;25.632;2022-08-19T02:10:05;9.27;;;7.33;;
23416;SDS011;11881;42.432;25.632;2022-08-19T02:12:33;11.53;;;7.47;;
23416;SDS011;11881;42.432;25.632;2022-08-19T02:14:58;10.33;;;7.33;;
23416;SDS011;11881;42.432;25.632;2022-08-19T02:17:26;8.73;;;7.87;;
23416;SDS011;11881;42.432;25.632;2022-08-19T02:19:53;12.03;;;7.77;;
23416;SDS011;11881;42.432;25.632;2022-08-19T02:22:18;16.90;;;7.20;;
23416;SDS011;11881;42.432;25.632;2022-08-19T02:24:44;14.07;;;7.43;;
23416;SDS011;11881;42.432;25.632;2022-08-19T02:27:09;10.30;;;7.60;;
23416;SDS011;11881;42.432;25.632;2022-08-19T02:29:35;12.77;;;7.47;;
23416;SDS011;11881;42.432;25.632;2022-08-19T02:32:00;20.07;;;7.57;;
23416;SDS011;11881;42.432;25.632;2022-08-19T02:34:26;9.87;;;7.73;;
23416;SDS011;11881;42.432;25.632;2022-08-19T02:36:51;15.33;;;7.63;;
23416;SDS011;11881;42.432;25.632;2022-08-19T02:39:17;8.67;;;7.73;;
23416;SDS011;11881;42.432;25.632;2022-08-19T02:41:43;11.77;;;7.87;;
23416;SDS011;11881;42.432;25.632;2022-08-19T02:44:08;9.87;;;8.00;;
23416;SDS011;11881;42.432;25.632;2022-08-19T02:46:34;10.70;;;8.10;;
23416;SDS011;11881;42.432;25.632;2022-08-19T02:49:00;9.50;;;6.93;;
23416;SDS011;11881;42.432;25.632;2022-08-19T02:51:29;12.00;;;7.67;;
23416;SDS011;11881;42.432;25.632;2022-08-19T02:53:57;13.23;;;7.53;;
23416;SDS011;11881;42.432;25.632;2022-08-19T02:56:24;11.63;;;7.53;;
23416;SDS011;11881;42.432;25.632;2022-08-19T02:58:51;9.30;;;7.67;;
23416;SDS011;11881;42.432;25.632;2022-08-19T03:01:28;9.87;;;7.90;;
23416;SDS011;11881;42.432;25.632;2022-08-19T03:03:57;9.40;;;8.17;;
23416;SDS011;11881;42.432;25.632;2022-08-19T03:06:25;10.73;;;7.83;;
23416;SDS011;11881;42.432;25.632;2022-08-19T03:08:51;12.13;;;8.80;;
23416;SDS011;11881;42.432;25.632;2022-08-19T03:11:24;11.70;;;7.93;;
23416;SDS011;11881;42.432;25.632;2022-08-19T03:13:54;13.13;;;8.27;;
23416;SDS011;11881;42.432;25.632;2022-08-19T03:16:20;15.53;;;8.43;;
23416;SDS011;11881;42.432;25.632;2022-08-19T03:18:47;14.53;;;8.57;;
23416;SDS011;11881;42.432;25.632;2022-08-19T03:21:20;12.53;;;8.43;;
23416;SDS011;11881;42.432;25.632;2022-08-19T03:23:49;18.50;;;9.37;;
23416;SDS011;11881;42.432;25.632;2022-08-19T03:26:14;18.97;;;8.47;;
23416;SDS011;11881;42.432;25.632;2022-08-19T03:28:44;15.00;;;8.87;;
23416;SDS011;11881;42.432;25.632;2022-08-19T03:31:15;19.93;;;9.33;;
23416;SDS011;11881;42.432;25.632;2022-08-19T03:33:43;18.60;;;7.80;;
23416;SDS011;11881;42.432;25.632;2022-08-19T03:36:10;15.70;;;8.60;;
23416;SDS011;11881;42.432;25.632;2022-08-19T03:38:40;13.10;;;8.57;;
23416;SDS011;11881;42.432;25.632;2022-08-19T03:41:08;12.23;;;8.33;;
23416;SDS011;11881;42.432;25.632;2022-08-19T03:43:36;13.23;;;8.07;;
23416;SDS011;11881;42.432;25.632;2022-08-19T03:46:04;10.83;;;8.03;;
23416;SDS011;11881;42.432;25.632;2022-08-19T03:48:39;14.80;;;8.63;;
23416;SDS011;11881;42.432;25.632;2022-08-19T03:51:06;10.20;;;8.93;;
23416;SDS011;11881;42.432;25.632;2022-08-19T03:53:34;12.77;;;8.90;;
23416;SDS011;11881;42.432;25.632;2022-08-19T03:56:00;13.20;;;8.83;;
23416;SDS011;11881;42.432;25.632;2022-08-19T03:58:27;12.73;;;9.07;;
23416;SDS011;11881;42.432;25.632;2022-08-19T04:00:55;18.67;;;8.83;;
23416;SDS011;11881;42.432;25.632;2022-08-19T04:03:22;17.80;;;9.50;;
23416;SDS011;11881;42.432;25.632;2022-08-19T04:05:49;17.83;;;8.77;;
23416;SDS011;11881;42.432;25.632;2022-08-19T04:08:14;15.70;;;9.07;;
23416;SDS011;11881;42.432;25.632;2022-08-19T04:10:45;15.00;;;8.70;;
23416;SDS011;11881;42.432;25.632;2022-08-19T04:13:12;14.90;;;8.90;;
23416;SDS011;11881;42.432;25.632;2022-08-19T04:15:39;15.00;;;9.10;;
23416;SDS011;11881;42.432;25.632;2022-08-19T04:18:09;19.17;;;8.67;;
23416;SDS011;11881;42.432;25.632;2022-08-19T04:20:42;17.33;;;8.77;;
23416;SDS011;11881;42.432;25.632;2022-08-19T04:23:12;12.37;;;8.20;;
23416;SDS011;11881;42.432;25.632;2022-08-19T04:25:42;19.13;;;9.43;;
23416;SDS011;11881;42.432;25.632;2022-08-19T04:28:09;12.57;;;9.43;;
23416;SDS011;11881;42.432;25.632;2022-08-19T04:30:41;32.57;;;10.00;;
23416;SDS011;11881;42.432;25.632;2022-08-19T04:33:09;20.40;;;9.53;;
23416;SDS011;11881;42.432;25.632;2022-08-19T04:35:37;27.10;;;9.37;;
23416;SDS011;11881;42.432;25.632;2022-08-19T04:38:08;23.07;;;9.33;;
23416;SDS011;11881;42.432;25.632;2022-08-19T04:40:39;23.57;;;9.17;;
23416;SDS011;11881;42.432;25.632;2022-08-19T04:43:23;22.10;;;9.53;;
23416;SDS011;11881;42.432;25.632;2022-08-19T04:45:49;17.97;;;9.13;;
23416;SDS011;11881;42.432;25.632;2022-08-19T04:48:16;18.50;;;8.47;;
23416;SDS011;11881;42.432;25.632;2022-08-19T04:50:48;13.07;;;8.13;;
23416;SDS011;11881;42.432;25.632;2022-08-19T04:53:13;20.07;;;8.77;;
23416;SDS011;11881;42.432;25.632;2022-08-19T04:55:40;15.57;;;8.30;;
23416;SDS011;11881;42.432;25.632;2022-08-19T04:58:06;19.90;;;8.67;;
23416;SDS011;11881;42.432;25.632;2022-08-19T05:00:32;25.47;;;9.13;;
23416;SDS011;11881;42.432;25.632;2022-08-19T05:02:58;28.73;;;9.40;;
23416;SDS011;11881;42.432;25.632;2022-08-19T05:05:23;21.40;;;8.70;;
23416;SDS011;11881;42.432;25.632;2022-08-19T05:07:48;19.00;;;8.57;;
23416;SDS011;11881;42.432;25.632;2022-08-19T05:10:14;11.47;;;8.13;;
23416;SDS011;11881;42.432;25.632;2022-08-19T05:12:39;11.80;;;7.80;;
23416;SDS011;11881;42.432;25.632;2022-08-19T05:15:05;73.50;;;10.00;;
23416;SDS011;11881;42.432;25.632;2022-08-19T05:17:33;59.93;;;9.83;;
23416;SDS011;11881;42.432;25.632;2022-08-19T05:19:59;43.77;;;9.27;;
23416;SDS011;11881;42.432;25.632;2022-08-19T05:22:44;33.23;;;9.47;;
23416;SDS011;11881;42.432;25.632;2022-08-19T05:25:12;18.83;;;8.10;;
23416;SDS011;11881;42.432;25.632;2022-08-19T05:27:41;14.97;;;8.40;;
23416;SDS011;11881;42.432;25.632;2022-08-19T05:30:07;16.83;;;8.30;;
23416;SDS011;11881;42.432;25.632;2022-08-19T05:32:33;18.63;;;8.40;;
23416;SDS011;11881;42.432;25.632;2022-08-19T05:34:58;17.63;;;8.77;;
23416;SDS011;11881;42.432;25.632;2022-08-19T05:37:24;16.90;;;8.97;;
23416;SDS011;11881;42.432;25.632;2022-08-19T05:39:52;13.90;;;8.13;;
23416;SDS011;11881;42.432;25.632;2022-08-19T05:42:19;12.83;;;8.63;;
23416;SDS011;11881;42.432;25.632;2022-08-19T05:44:47;14.00;;;9.27;;
23416;SDS011;11881;42.432;25.632;2022-08-19T05:47:15;14.57;;;8.57;;
23416;SDS011;11881;42.432;25.632;2022-08-19T05:49:41;13.37;;;9.07;;
23416;SDS011;11881;42.432;25.632;2022-08-19T05:52:12;14.80;;;9.07;;
23416;SDS011;11881;42.432;25.632;2022-08-19T05:54:40;12.03;;;8.43;;
23416;SDS011;11881;42.432;25.632;2022-08-19T05:57:08;11.93;;;8.87;;
23416;SDS011;11881;42.432;25.632;2022-08-19T05:59:34;15.18;;;8.23;;
23416;SDS011;11881;42.432;25.632;2022-08-19T06:02:00;10.67;;;8.10;;
23416;SDS011;11881;42.432;25.632;2022-08-19T06:04:26;9.82;;;8.43;;
23416;SDS011;11881;42.432;25.632;2022-08-19T06:06:52;15.68;;;8.88;;
23416;SDS011;11881;42.432;25.632;2022-08-19T06:09:19;11.75;;;8.50;;
23416;SDS011;11881;42.432;25.632;2022-08-19T06:14:16;17.60;;;8.18;;
23416;SDS011;11881;42.432;25.632;2022-08-19T06:16:46;14.43;;;8.23;;
23416;SDS011;11881;42.432;25.632;2022-08-19T06:19:13;11.05;;;7.95;;
23416;SDS011;11881;42.432;25.632;2022-08-19T06:21:41;14.30;;;8.13;;
23416;SDS011;11881;42.432;25.632;2022-08-19T06:24:09;14.15;;;8.95;;
23416;SDS011;11881;42.432;25.632;2022-08-19T06:26:37;12.15;;;8.50;;
23416;SDS011;11881;42.432;25.632;2022-08-19T06:29:07;14.82;;;8.43;;
23416;SDS011;11881;42.432;25.632;2022-08-19T06:31:34;12.45;;;8.60;;
23416;SDS011;11881;42.432;25.632;2022-08-19T06:34:00;11.82;;;8.23;;
23416;SDS011;11881;42.432;25.632;2022-08-19T06:36:35;13.55;;;8.52;;
23416;SDS011;11881;42.432;25.632;2022-08-19T06:39:06;11.43;;;8.43;;
23416;SDS011;11881;42.432;25.632;2022-08-19T06:41:35;15.57;;;8.45;;
23416;SDS011;11881;42.432;25.632;2022-08-19T06:44:03;14.23;;;8.73;;
23416;SDS011;11881;42.432;25.632;2022-08-19T06:46:29;14.05;;;8.55;;
23416;SDS011;11881;42.432;25.632;2022-08-19T06:48:56;9.27;;;8.38;;
23416;SDS011;11881;42.432;25.632;2022-08-19T06:51:22;13.43;;;9.13;;
23416;SDS011;11881;42.432;25.632;2022-08-19T06:53:49;10.50;;;8.05;;
23416;SDS011;11881;42.432;25.632;2022-08-19T06:56:18;10.57;;;7.45;;
23416;SDS011;11881;42.432;25.632;2022-08-19T06:58:47;9.25;;;7.78;;
23416;SDS011;11881;42.432;25.632;2022-08-19T07:01:16;10.25;;;7.97;;
23416;SDS011;11881;42.432;25.632;2022-08-19T07:03:42;9.07;;;7.43;;
23416;SDS011;11881;42.432;25.632;2022-08-19T07:06:08;9.25;;;8.07;;
23416;SDS011;11881;42.432;25.632;2022-08-19T07:08:37;8.57;;;7.25;;
23416;SDS011;11881;42.432;25.632;2022-08-19T07:11:08;11.23;;;7.63;;
23416;SDS011;11881;42.432;25.632;2022-08-19T07:13:36;13.73;;;8.38;;
23416;SDS011;11881;42.432;25.632;2022-08-19T07:16:23;8.63;;;7.50;;
23416;SDS011;11881;42.432;25.632;2022-08-19T07:18:48;8.52;;;7.10;;
23416;SDS011;11881;42.432;25.632;2022-08-19T07:21:20;13.10;;;8.10;;
23416;SDS011;11881;42.432;25.632;2022-08-19T07:23:52;9.30;;;7.38;;
23416;SDS011;11881;42.432;25.632;2022-08-19T07:26:23;11.57;;;7.72;;
23416;SDS011;11881;42.432;25.632;2022-08-19T07:28:54;10.75;;;7.75;;
23416;SDS011;11881;42.432;25.632;2022-08-19T07:31:21;12.70;;;6.93;;
23416;SDS011;11881;42.432;25.632;2022-08-19T07:33:49;8.27;;;7.45;;
23416;SDS011;11881;42.432;25.632;2022-08-19T07:36:17;11.20;;;7.90;;
23416;SDS011;11881;42.432;25.632;2022-08-19T07:38:45;8.93;;;7.00;;
23416;SDS011;11881;42.432;25.632;2022-08-19T07:41:15;14.10;;;8.02;;
23416;SDS011;11881;42.432;25.632;2022-08-19T07:43:44;9.93;;;7.35;;
23416;SDS011;11881;42.432;25.632;2022-08-19T07:46:10;9.55;;;7.18;;
23416;SDS011;11881;42.432;25.632;2022-08-19T07:48:38;9.20;;;7.30;;
23416;SDS011;11881;42.432;25.632;2022-08-19T07:51:06;9.40;;;7.53;;
23416;SDS011;11881;42.432;25.632;2022-08-19T07:53:33;9.32;;;7.82;;
23416;SDS011;11881;42.432;25.632;2022-08-19T07:56:00;13.15;;;7.97;;
23416;SDS011;11881;42.432;25.632;2022-08-19T07:58:29;9.27;;;7.75;;
23416;SDS011;11881;42.432;25.632;2022-08-19T08:00:56;10.57;;;8.35;;
23416;SDS011;11881;42.432;25.632;2022-08-19T08:03:22;11.73;;;7.30;;
23416;SDS011;11881;42.432;25.632;2022-08-19T08:06:12;13.68;;;7.65;;
23416;SDS011;11881;42.432;25.632;2022-08-19T08:08:57;17.85;;;7.75;;
23416;SDS011;11881;42.432;25.632;2022-08-19T08:11:44;14.50;;;7.85;;
23416;SDS011;11881;42.432;25.632;2022-08-19T08:14:14;8.93;;;7.60;;
23416;SDS011;11881;42.432;25.632;2022-08-19T08:16:47;9.90;;;7.57;;
23416;SDS011;11881;42.432;25.632;2022-08-19T08:19:15;15.07;;;7.68;;
23416;SDS011;11881;42.432;25.632;2022-08-19T08:21:40;12.35;;;7.63;;
23416;SDS011;11881;42.432;25.632;2022-08-19T08:24:07;9.93;;;6.78;;
23416;SDS011;11881;42.432;25.632;2022-08-19T08:26:33;12.35;;;7.63;;
23416;SDS011;11881;42.432;25.632;2022-08-19T08:28:58;10.90;;;7.53;;
23416;SDS011;11881;42.432;25.632;2022-08-19T08:31:24;9.00;;;7.10;;
23416;SDS011;11881;42.432;25.632;2022-08-19T08:33:49;12.30;;;7.63;;
23416;SDS011;11881;42.432;25.632;2022-08-19T08:36:15;9.52;;;7.28;;
23416;SDS011;11881;42.432;25.632;2022-08-19T08:38:44;9.57;;;7.07;;
23416;SDS011;11881;42.432;25.632;2022-08-19T08:43:48;11.10;;;7.00;;
23416;SDS011;11881;42.432;25.632;2022-08-19T08:46:21;14.77;;;7.57;;
23416;SDS011;11881;42.432;25.632;2022-08-19T08:51:32;11.90;;;7.32;;
23416;SDS011;11881;42.432;25.632;2022-08-19T08:54:00;13.70;;;6.75;;
23416;SDS011;11881;42.432;25.632;2022-08-19T08:56:29;16.27;;;6.82;;
23416;SDS011;11881;42.432;25.632;2022-08-19T08:58:58;12.93;;;6.32;;
23416;SDS011;11881;42.432;25.632;2022-08-19T09:01:27;11.45;;;6.10;;
23416;SDS011;11881;42.432;25.632;2022-08-19T09:03:52;9.85;;;5.63;;
23416;SDS011;11881;42.432;25.632;2022-08-19T09:17:06;6.85;;;4.93;;
23416;SDS011;11881;42.432;25.632;2022-08-19T09:19:34;10.10;;;5.13;;
23416;SDS011;11881;42.432;25.632;2022-08-19T09:22:23;5.43;;;4.63;;
23416;SDS011;11881;42.432;25.632;2022-08-19T09:24:49;6.30;;;4.88;;
23416;SDS011;11881;42.432;25.632;2022-08-19T09:27:17;9.75;;;5.30;;
23416;SDS011;11881;42.432;25.632;2022-08-19T09:29:45;7.75;;;5.43;;
23416;SDS011;11881;42.432;25.632;2022-08-19T09:32:13;9.15;;;5.05;;
23416;SDS011;11881;42.432;25.632;2022-08-19T09:34:39;13.00;;;5.15;;
23416;SDS011;11881;42.432;25.632;2022-08-19T09:37:04;7.38;;;4.72;;
23416;SDS011;11881;42.432;25.632;2022-08-19T09:39:30;7.30;;;4.82;;
23416;SDS011;11881;42.432;25.632;2022-08-19T09:41:56;11.45;;;4.53;;
23416;SDS011;11881;42.432;25.632;2022-08-19T09:44:21;12.48;;;4.88;;
23416;SDS011;11881;42.432;25.632;2022-08-19T09:46:46;7.97;;;4.50;;
23416;SDS011;11881;42.432;25.632;2022-08-19T09:49:12;12.98;;;4.97;;
23416;SDS011;11881;42.432;25.632;2022-08-19T09:51:37;6.00;;;4.25;;
23416;SDS011;11881;42.432;25.632;2022-08-19T09:54:03;7.55;;;4.32;;
23416;SDS011;11881;42.432;25.632;2022-08-19T09:56:30;11.30;;;4.47;;
23416;SDS011;11881;42.432;25.632;2022-08-19T09:59:00;6.93;;;4.80;;
23416;SDS011;11881;42.432;25.632;2022-08-19T10:01:27;10.10;;;4.75;;
23416;SDS011;11881;42.432;25.632;2022-08-19T10:03:55;11.95;;;5.20;;
23416;SDS011;11881;42.432;25.632;2022-08-19T10:06:23;8.82;;;4.50;;
23416;SDS011;11881;42.432;25.632;2022-08-19T10:08:50;8.90;;;4.20;;
23416;SDS011;11881;42.432;25.632;2022-08-19T10:11:18;9.32;;;4.60;;
23416;SDS011;11881;42.432;25.632;2022-08-19T10:13:44;8.23;;;4.18;;
23416;SDS011;11881;42.432;25.632;2022-08-19T10:16:11;5.25;;;4.35;;
23416;SDS011;11881;42.432;25.632;2022-08-19T10:18:39;10.75;;;4.43;;
23416;SDS011;11881;42.432;25.632;2022-08-19T10:21:15;6.68;;;4.32;;
23416;SDS011;11881;42.432;25.632;2022-08-19T10:23:47;7.22;;;4.60;;
23416;SDS011;11881;42.432;25.632;2022-08-19T10:26:19;11.25;;;4.00;;
23416;SDS011;11881;42.432;25.632;2022-08-19T10:28:47;8.35;;;4.82;;
23416;SDS011;11881;42.432;25.632;2022-08-19T10:31:23;6.97;;;4.78;;
23416;SDS011;11881;42.432;25.632;2022-08-19T10:33:52;11.25;;;4.70;;
23416;SDS011;11881;42.432;25.632;2022-08-19T10:36:23;6.85;;;4.25;;
23416;SDS011;11881;42.432;25.632;2022-08-19T10:38:51;8.13;;;4.38;;
23416;SDS011;11881;42.432;25.632;2022-08-19T10:41:20;9.52;;;4.78;;
23416;SDS011;11881;42.432;25.632;2022-08-19T10:43:50;4.65;;;3.97;;
23416;SDS011;11881;42.432;25.632;2022-08-19T10:46:17;6.88;;;4.70;;
23416;SDS011;11881;42.432;25.632;2022-08-19T10:48:43;5.70;;;4.40;;
23416;SDS011;11881;42.432;25.632;2022-08-19T10:51:09;5.05;;;4.22;;
23416;SDS011;11881;42.432;25.632;2022-08-19T10:53:54;8.65;;;4.57;;
23416;SDS011;11881;42.432;25.632;2022-08-19T10:56:21;7.43;;;5.00;;
23416;SDS011;11881;42.432;25.632;2022-08-19T10:59:05;7.88;;;4.57;;
23416;SDS011;11881;42.432;25.632;2022-08-19T11:01:32;9.68;;;4.60;;
23416;SDS011;11881;42.432;25.632;2022-08-19T11:03:59;12.32;;;4.68;;
23416;SDS011;11881;42.432;25.632;2022-08-19T11:06:31;12.20;;;4.57;;
23416;SDS011;11881;42.432;25.632;2022-08-19T11:08:57;10.05;;;4.55;;
23416;SDS011;11881;42.432;25.632;2022-08-19T11:11:23;10.90;;;4.35;;
23416;SDS011;11881;42.432;25.632;2022-08-19T11:13:48;4.57;;;4.18;;
23416;SDS011;11881;42.432;25.632;2022-08-19T11:16:16;9.52;;;4.00;;
23416;SDS011;11881;42.432;25.632;2022-08-19T11:18:44;5.82;;;3.90;;
23416;SDS011;11881;42.432;25.632;2022-08-19T11:21:17;5.57;;;4.10;;
23416;SDS011;11881;42.432;25.632;2022-08-19T11:23:49;6.30;;;4.00;;
23416;SDS011;11881;42.432;25.632;2022-08-19T11:26:16;5.53;;;4.55;;
23416;SDS011;11881;42.432;25.632;2022-08-19T11:28:43;6.07;;;4.30;;
23416;SDS011;11881;42.432;25.632;2022-08-19T11:31:15;7.18;;;3.95;;
23416;SDS011;11881;42.432;25.632;2022-08-19T11:33:42;4.68;;;3.88;;
23416;SDS011;11881;42.432;25.632;2022-08-19T11:36:08;6.45;;;3.90;;
23416;SDS011;11881;42.432;25.632;2022-08-19T11:38:35;8.20;;;4.28;;
23416;SDS011;11881;42.432;25.632;2022-08-19T11:41:06;8.20;;;3.95;;
23416;SDS011;11881;42.432;25.632;2022-08-19T11:43:32;8.90;;;3.55;;
23416;SDS011;11881;42.432;25.632;2022-08-19T11:45:59;4.57;;;3.53;;
23416;SDS011;11881;42.432;25.632;2022-08-19T11:48:25;8.43;;;3.80;;
23416;SDS011;11881;42.432;25.632;2022-08-19T11:50:51;11.50;;;4.00;;
23416;SDS011;11881;42.432;25.632;2022-08-19T11:53:20;6.35;;;3.97;;
23416;SDS011;11881;42.432;25.632;2022-08-19T11:55:46;4.72;;;3.63;;
23416;SDS011;11881;42.432;25.632;2022-08-19T11:58:12;10.85;;;3.65;;
23416;SDS011;11881;42.432;25.632;2022-08-19T12:00:40;5.53;;;4.00;;
23416;SDS011;11881;42.432;25.632;2022-08-19T12:03:06;6.45;;;3.55;;
23416;SDS011;11881;42.432;25.632;2022-08-19T12:05:31;7.65;;;4.20;;
23416;SDS011;11881;42.432;25.632;2022-08-19T12:07:57;9.27;;;3.65;;
23416;SDS011;11881;42.432;25.632;2022-08-19T12:10:23;6.78;;;4.25;;
23416;SDS011;11881;42.432;25.632;2022-08-19T12:12:48;5.35;;;3.83;;
23416;SDS011;11881;42.432;25.632;2022-08-19T12:15:14;8.25;;;3.95;;
23416;SDS011;11881;42.432;25.632;2022-08-19T12:17:42;5.38;;;3.60;;
23416;SDS011;11881;42.432;25.632;2022-08-19T12:20:11;6.75;;;3.45;;
23416;SDS011;11881;42.432;25.632;2022-08-19T12:22:40;6.40;;;3.75;;
23416;SDS011;11881;42.432;25.632;2022-08-19T12:25:09;7.53;;;3.60;;
23416;SDS011;11881;42.432;25.632;2022-08-19T12:27:36;5.82;;;3.20;;
23416;SDS011;11881;42.432;25.632;2022-08-19T12:30:03;7.18;;;3.67;;
23416;SDS011;11881;42.432;25.632;2022-08-19T12:32:30;5.45;;;3.78;;
23416;SDS011;11881;42.432;25.632;2022-08-19T12:34:55;16.48;;;4.78;;
23416;SDS011;11881;42.432;25.632;2022-08-19T12:37:20;8.45;;;4.03;;
23416;SDS011;11881;42.432;25.632;2022-08-19T12:39:46;5.50;;;3.50;;
23416;SDS011;11881;42.432;25.632;2022-08-19T12:42:12;9.45;;;3.70;;
23416;SDS011;11881;42.432;25.632;2022-08-19T12:44:40;12.45;;;4.00;;
23416;SDS011;11881;42.432;25.632;2022-08-19T12:47:07;5.57;;;3.88;;
23416;SDS011;11881;42.432;25.632;2022-08-19T12:49:35;3.45;;;3.15;;
23416;SDS011;11881;42.432;25.632;2022-08-19T12:52:04;5.25;;;3.83;;
23416;SDS011;11881;42.432;25.632;2022-08-19T12:54:30;6.35;;;4.85;;
23416;SDS011;11881;42.432;25.632;2022-08-19T12:56:56;8.77;;;4.20;;
23416;SDS011;11881;42.432;25.632;2022-08-19T12:59:23;11.02;;;4.00;;
23416;SDS011;11881;42.432;25.632;2022-08-19T13:01:48;8.30;;;4.00;;
23416;SDS011;11881;42.432;25.632;2022-08-19T13:04:14;7.13;;;3.38;;
23416;SDS011;11881;42.432;25.632;2022-08-19T13:06:40;6.63;;;3.95;;
23416;SDS011;11881;42.432;25.632;2022-08-19T13:09:07;10.27;;;4.40;;
23416;SDS011;11881;42.432;25.632;2022-08-19T13:11:32;13.38;;;4.30;;
23416;SDS011;11881;42.432;25.632;2022-08-19T13:13:59;4.65;;;3.88;;
23416;SDS011;11881;42.432;25.632;2022-08-19T13:16:25;6.57;;;3.58;;
23416;SDS011;11881;42.432;25.632;2022-08-19T13:18:52;4.95;;;3.35;;
23416;SDS011;11881;42.432;25.632;2022-08-19T13:21:19;6.88;;;3.95;;
23416;SDS011;11881;42.432;25.632;2022-08-19T13:23:47;7.20;;;3.97;;
23416;SDS011;11881;42.432;25.632;2022-08-19T13:26:13;5.70;;;3.22;;
23416;SDS011;11881;42.432;25.632;2022-08-19T13:28:40;5.40;;;3.75;;
23416;SDS011;11881;42.432;25.632;2022-08-19T13:31:26;5.07;;;3.60;;
23416;SDS011;11881;42.432;25.632;2022-08-19T13:34:18;7.68;;;4.40;;
23416;SDS011;11881;42.432;25.632;2022-08-19T13:36:51;6.10;;;4.07;;
23416;SDS011;11881;42.432;25.632;2022-08-19T13:39:17;10.80;;;4.57;;
23416;SDS011;11881;42.432;25.632;2022-08-19T13:41:44;6.03;;;4.32;;
23416;SDS011;11881;42.432;25.632;2022-08-19T13:44:17;6.80;;;4.45;;
23416;SDS011;11881;42.432;25.632;2022-08-19T13:46:44;8.63;;;4.30;;
23416;SDS011;11881;42.432;25.632;2022-08-19T13:49:11;8.60;;;3.60;;
23416;SDS011;11881;42.432;25.632;2022-08-19T13:51:38;5.97;;;3.67;;
23416;SDS011;11881;42.432;25.632;2022-08-19T13:54:07;7.90;;;4.45;;
23416;SDS011;11881;42.432;25.632;2022-08-19T13:56:33;5.07;;;3.90;;
23416;SDS011;11881;42.432;25.632;2022-08-19T13:59:00;4.10;;;3.70;;
23416;SDS011;11881;42.432;25.632;2022-08-19T14:01:25;6.13;;;3.88;;
23416;SDS011;11881;42.432;25.632;2022-08-19T14:03:52;11.18;;;3.72;;
23416;SDS011;11881;42.432;25.632;2022-08-19T14:06:18;5.25;;;4.00;;
23416;SDS011;11881;42.432;25.632;2022-08-19T14:08:44;6.75;;;3.83;;
23416;SDS011;11881;42.432;25.632;2022-08-19T14:11:10;10.07;;;4.65;;
23416;SDS011;11881;42.432;25.632;2022-08-19T14:13:35;8.32;;;4.38;;
23416;SDS011;11881;42.432;25.632;2022-08-19T14:16:05;8.10;;;3.80;;
23416;SDS011;11881;42.432;25.632;2022-08-19T14:18:35;5.97;;;3.67;;
23416;SDS011;11881;42.432;25.632;2022-08-19T14:21:02;4.82;;;3.65;;
23416;SDS011;11881;42.432;25.632;2022-08-19T14:23:29;5.82;;;4.03;;
23416;SDS011;11881;42.432;25.632;2022-08-19T14:26:02;10.52;;;4.10;;
23416;SDS011;11881;42.432;25.632;2022-08-19T14:28:32;9.52;;;3.92;;
23416;SDS011;11881;42.432;25.632;2022-08-19T14:30:58;11.98;;;4.28;;
23416;SDS011;11881;42.432;25.632;2022-08-19T14:33:23;9.35;;;4.03;;
23416;SDS011;11881;42.432;25.632;2022-08-19T14:35:49;5.70;;;4.00;;
23416;SDS011;11881;42.432;25.632;2022-08-19T14:38:15;9.32;;;4.45;;
23416;SDS011;11881;42.432;25.632;2022-08-19T14:40:42;5.90;;;3.80;;
23416;SDS011;11881;42.432;25.632;2022-08-19T14:43:07;7.72;;;4.10;;
23416;SDS011;11881;42.432;25.632;2022-08-19T14:45:34;4.45;;;4.00;;
23416;SDS011;11881;42.432;25.632;2022-08-19T14:48:01;8.52;;;4.20;;
23416;SDS011;11881;42.432;25.632;2022-08-19T14:50:27;6.88;;;4.03;;
23416;SDS011;11881;42.432;25.632;2022-08-19T14:53:00;7.47;;;4.25;;